Time;durP1;ratioP1;P1;durP2;ratioP2;P2;SDS_P1;SDS_P2;PMS_P1;PMS_P2;Temp;Humidity;BMP_temperature;BMP_pressure;BME280_temperature;BME280_humidity;BME280_pressure;Samples;Min_cycle;Max_cycle;Signal;HPM_P1;HPM_P2
2022/06/13 00:02:05;;;;;;;24.60;7.60;;;;;;;10.76;100.00;100509.56;7386099;19;20751;-51
2022/06/13 00:04:43;;;;;;;24.13;6.47;;;;;;;10.74;100.00;100511.22;7395089;19;20380;-53
2022/06/13 00:07:13;;;;;;;20.90;7.23;;;;;;;10.72;100.00;100508.59;7387480;19;20399;-56
2022/06/13 00:09:43;;;;;;;16.23;6.83;;;;;;;10.70;100.00;100499.03;7393248;19;20936;-56
2022/06/13 00:12:13;;;;;;;18.97;7.37;;;;;;;10.66;100.00;100491.19;7388607;19;20429;-52
2022/06/13 00:14:42;;;;;;;17.33;5.83;;;;;;;10.62;100.00;100486.72;7394733;19;20418;-55
2022/06/13 00:17:14;;;;;;;16.40;6.43;;;;;;;10.62;100.00;100485.88;7387266;19;20449;-53
2022/06/13 00:19:44;;;;;;;19.70;5.90;;;;;;;10.61;100.00;100490.13;7398157;19;20430;-52
2022/06/13 00:22:14;;;;;;;26.63;7.20;;;;;;;10.59;100.00;100486.63;7386606;19;20419;-54
2022/06/13 00:24:43;;;;;;;22.77;6.77;;;;;;;10.61;100.00;100495.28;7395263;19;20384;-54
2022/06/13 00:27:13;;;;;;;17.83;6.40;;;;;;;10.65;100.00;100481.69;7388120;19;20428;-49
2022/06/13 00:29:44;;;;;;;18.60;6.63;;;;;;;10.68;100.00;100478.34;7393278;19;20431;-52
2022/06/13 00:32:16;;;;;;;25.83;8.07;;;;;;;10.72;100.00;100469.03;7385950;19;20490;-53
2022/06/13 00:34:47;;;;;;;17.20;6.60;;;;;;;10.69;100.00;100464.63;7395230;19;20388;-53
2022/06/13 00:37:17;;;;;;;26.57;6.97;;;;;;;10.63;100.00;100462.72;7388248;19;20407;-52
2022/06/13 00:39:47;;;;;;;19.07;7.27;;;;;;;10.63;100.00;100461.81;7394021;19;20946;-49
2022/06/13 00:42:20;;;;;;;24.97;7.10;;;;;;;10.68;100.00;100460.28;7389020;19;20494;-52
2022/06/13 00:45:07;;;;;;;13.50;6.20;;;;;;;10.64;100.00;100456.72;7395243;19;20410;-50
2022/06/13 00:47:53;;;;;;;26.37;7.30;;;;;;;10.63;100.00;100462.72;7388391;19;20414;-50
2022/06/13 00:50:26;;;;;;;20.23;6.93;;;;;;;10.62;100.00;100465.22;7393274;19;20498;-52
2022/06/13 00:52:57;;;;;;;16.53;5.93;;;;;;;10.66;100.00;100465.38;7390648;19;20953;-51
2022/06/13 00:55:31;;;;;;;16.90;7.20;;;;;;;10.71;100.00;100459.53;7394221;19;20388;-54
2022/06/13 00:58:02;;;;;;;20.30;7.07;;;;;;;10.69;100.00;100456.00;7395600;19;20504;-55
2022/06/13 01:00:37;;;;;;;17.13;6.70;;;;;;;10.63;100.00;100467.88;7387434;19;20423;-55
2022/06/13 01:03:09;;;;;;;14.93;6.50;;;;;;;10.61;100.00;100469.50;7394023;19;20379;-54
2022/06/13 01:05:43;;;;;;;26.07;7.33;;;;;;;10.65;100.00;100471.38;7391515;19;20463;-52
2022/06/13 01:08:15;;;;;;;32.23;7.40;;;;;;;10.67;100.00;100466.28;7394335;19;20360;-51
2022/06/13 01:13:40;;;;;;;19.13;7.23;;;;;;;10.71;100.00;100475.00;7394565;19;20379;-51
2022/06/13 01:16:22;;;;;;;16.93;7.63;;;;;;;10.66;100.00;100480.88;7388201;19;20399;-51
2022/06/13 01:19:14;;;;;;;21.17;7.03;;;;;;;10.73;100.00;100488.84;7393778;19;20408;-51
2022/06/13 01:21:51;;;;;;;22.27;7.07;;;;;;;10.67;100.00;100495.53;7385102;19;20971;-55
2022/06/13 01:24:44;;;;;;;30.27;6.73;;;;;;;10.63;100.00;100495.34;7393635;19;20922;-53
2022/06/13 01:27:48;;;;;;;18.80;6.10;;;;;;;10.59;100.00;100496.94;7379521;19;20472;-52
2022/06/13 01:30:48;;;;;;;15.47;6.53;;;;;;;10.58;100.00;100489.16;7392358;19;20416;-53
2022/06/13 01:33:25;;;;;;;23.37;8.63;;;;;;;10.56;100.00;100491.66;7394155;19;20779;-54
2022/06/13 01:36:01;;;;;;;17.40;6.90;;;;;;;10.51;100.00;100490.63;7387193;19;20414;-53
2022/06/13 01:38:40;;;;;;;22.70;7.00;;;;;;;10.53;100.00;100491.56;7393950;19;20399;-50
2022/06/13 01:41:14;;;;;;;23.00;7.03;;;;;;;10.47;100.00;100493.91;7385248;19;20834;-49
2022/06/13 01:43:54;;;;;;;20.60;7.10;;;;;;;10.39;100.00;100489.31;7393342;19;20395;-49
2022/06/13 01:46:31;;;;;;;19.90;7.07;;;;;;;10.35;100.00;100481.38;7387500;19;20411;-54
2022/06/13 01:49:09;;;;;;;13.27;5.87;;;;;;;10.36;100.00;100483.16;7392623;19;20375;-56
2022/06/13 01:51:54;;;;;;;16.73;6.70;;;;;;;10.33;100.00;100406.53;7387838;19;20498;-52
2022/06/13 01:54:28;;;;;;;22.97;6.67;;;;;;;10.31;100.00;100408.16;7393461;19;21292;-53
2022/06/13 01:57:05;;;;;;;24.23;7.60;;;;;;;10.31;100.00;100408.16;7387209;19;20412;-50
2022/06/13 01:59:41;;;;;;;21.20;6.40;;;;;;;10.37;100.00;100417.84;7392220;19;20407;-55
2022/06/13 02:02:13;;;;;;;20.40;6.90;;;;;;;10.29;100.00;100414.13;7384156;19;20422;-49
2022/06/13 02:04:48;;;;;;;16.47;6.33;;;;;;;10.21;100.00;100401.78;7393157;19;20384;-53
2022/06/13 02:07:20;;;;;;;18.73;6.73;;;;;;;10.22;100.00;100385.53;7392384;19;20429;-54
2022/06/13 02:09:54;;;;;;;18.70;6.97;;;;;;;10.20;100.00;100379.41;7398873;19;20399;-49
2022/06/13 02:12:25;;;;;;;21.50;6.90;;;;;;;10.16;100.00;100376.69;7393125;19;20434;-54
2022/06/13 02:14:59;;;;;;;24.90;7.60;;;;;;;10.13;100.00;100370.59;7400036;19;20386;-51
2022/06/13 02:17:32;;;;;;;28.20;7.43;;;;;;;10.08;100.00;100389.25;7395424;19;20464;-49
2022/06/13 02:20:08;;;;;;;19.43;6.53;;;;;;;10.10;100.00;100383.34;7397892;19;20411;-54
2022/06/13 02:22:41;;;;;;;17.10;6.17;;;;;;;10.12;100.00;100380.84;7391151;19;20427;-56
2022/06/13 02:25:15;;;;;;;26.30;6.93;;;;;;;10.16;100.00;100376.69;7399697;19;20376;-50
2022/06/13 02:27:47;;;;;;;25.27;6.70;;;;;;;10.17;100.00;100369.00;7394143;19;20419;-52
2022/06/13 02:30:20;;;;;;;21.03;6.87;;;;;;;10.21;100.00;100355.38;7397354;19;20760;-55
2022/06/13 02:32:52;;;;;;;21.30;7.00;;;;;;;10.24;100.00;100364.94;7393232;19;20423;-51
2022/06/13 02:35:26;;;;;;;22.03;7.20;;;;;;;10.28;100.00;100366.81;7399985;19;20380;-55
2022/06/13 02:38:00;;;;;;;18.53;6.53;;;;;;;10.30;100.00;100364.31;7393546;19;20420;-54
2022/06/13 02:40:33;;;;;;;22.03;6.50;;;;;;;10.32;100.00;100373.84;7396623;19;20442;-49
2022/06/13 02:43:06;;;;;;;16.33;6.43;;;;;;;10.34;100.00;100377.34;7396196;19;20776;-53
2022/06/13 02:45:39;;;;;;;21.00;7.30;;;;;;;10.33;100.00;100375.59;7393443;19;20380;-52
2022/06/13 02:48:12;;;;;;;18.20;7.40;;;;;;;10.35;100.00;100381.69;7398550;19;20390;-54
2022/06/13 02:50:50;;;;;;;13.90;6.33;;;;;;;10.37;100.00;100377.44;7387887;19;20503;-55
2022/06/13 02:53:25;;;;;;;13.30;6.47;;;;;;;10.40;100.00;100377.59;7398857;19;20471;-53
2022/06/13 02:56:03;;;;;;;22.30;7.33;;;;;;;10.43;100.00;100371.69;7392594;19;20407;-52
2022/06/13 02:58:37;;;;;;;18.33;7.40;;;;;;;10.48;100.00;100375.31;7398498;19;20408;-51
2022/06/13 03:01:12;;;;;;;19.53;7.23;;;;;;;10.49;100.00;100366.75;7386670;19;20451;-50
2022/06/13 03:03:47;;;;;;;14.53;6.90;;;;;;;10.52;100.00;100356.53;7396349;19;20455;-53
2022/06/13 03:06:24;;;;;;;18.73;6.90;;;;;;;10.53;100.00;100352.25;7391866;19;20411;-56
2022/06/13 03:09:05;;;;;;;19.07;8.37;;;;;;;10.57;100.00;100348.09;7397647;19;20387;-52
2022/06/13 03:11:41;;;;;;;15.30;7.07;;;;;;;10.55;100.00;100342.00;7392526;19;20415;-52
2022/06/13 03:14:29;;;;;;;22.57;7.77;;;;;;;10.52;100.00;100337.63;7398103;19;20382;-54
2022/06/13 03:17:04;;;;;;;16.83;7.33;;;;;;;10.53;100.00;100331.63;7391673;19;20391;-52
2022/06/13 03:19:39;;;;;;;18.30;7.20;;;;;;;10.50;100.00;100329.81;7396934;19;20431;-50
2022/06/13 03:22:15;;;;;;;13.33;6.80;;;;;;;10.52;100.00;100329.88;7388861;19;20440;-51
2022/06/13 03:24:50;;;;;;;23.87;6.77;;;;;;;10.52;100.00;100329.88;7397564;19;20404;-55
2022/06/13 03:27:24;;;;;;;19.97;6.80;;;;;;;10.50;100.00;100329.81;7390624;19;20415;-51
2022/06/13 03:29:57;;;;;;;22.23;7.97;;;;;;;10.53;100.00;100342.81;7396322;19;20430;-51
2022/06/13 03:32:29;;;;;;;17.87;6.30;;;;;;;10.53;100.00;100347.97;7390748;19;21044;-50
2022/06/13 03:35:02;;;;;;;27.57;7.70;;;;;;;10.55;100.00;100358.34;7397206;19;20402;-51
2022/06/13 03:37:43;;;;;;;21.67;8.13;;;;;;;10.54;100.00;100359.16;7390293;19;20411;-51
2022/06/13 03:40:19;;;;;;;22.20;7.50;;;;;;;10.59;100.00;100351.59;7395368;19;20433;-55
2022/06/13 03:42:52;;;;;;;17.07;7.20;;;;;;;10.65;100.00;100368.19;7387553;19;20792;-52
2022/06/13 03:45:25;;;;;;;21.53;6.50;;;;;;;10.71;100.00;100367.50;7397147;19;20388;-49
2022/06/13 03:48:00;;;;;;;20.60;7.63;;;;;;;10.81;100.00;100373.84;7388908;19;20419;-51
2022/06/13 03:50:32;;;;;;;15.73;8.03;;;;;;;10.79;100.00;100381.56;7395058;19;20458;-53
2022/06/13 03:53:11;;;;;;;25.07;9.90;;;;;;;10.86;100.00;100403.28;7396367;19;20424;-53
2022/06/13 03:55:44;;;;;;;22.73;6.87;;;;;;;10.96;100.00;100430.28;7391214;19;20914;-50
2022/06/13 03:58:17;;;;;;;26.23;7.60;;;;;;;10.89;100.00;100434.38;7396057;19;20384;-48
2022/06/13 04:00:50;;;;;;;24.77;8.33;;;;;;;10.74;100.00;100415.75;7387372;19;20400;-53
2022/06/13 04:03:20;;;;;;;23.60;8.37;;;;;;;10.40;100.00;100398.22;7395324;19;20455;-51
2022/06/13 04:05:59;;;;;;;24.63;8.70;;;;;;;10.42;100.00;100369.91;7388496;19;20396;-51
2022/06/13 04:08:34;;;;;;;33.50;10.07;;;;;;;10.45;100.00;100325.31;7396585;19;20479;-52
2022/06/13 04:11:16;;;;;;;27.47;8.00;;;;;;;10.39;100.00;100267.50;7386706;19;20434;-52
2022/06/13 04:13:58;;;;;;;26.00;8.30;;;;;;;10.27;100.00;100225.84;7396255;19;20467;-52
2022/06/13 04:16:31;;;;;;;20.13;8.17;;;;;;;10.20;100.00;100172.31;7389366;19;20419;-54
2022/06/13 04:19:12;;;;;;;21.53;6.70;;;;;;;10.10;100.00;100110.13;7395191;19;20464;-53
2022/06/13 04:21:49;;;;;;;27.30;8.50;;;;;;;10.12;100.00;100033.69;7389509;19;20817;-55
2022/06/13 04:24:30;;;;;;;23.47;8.97;;;;;;;10.13;100.00;99738.16;7394022;19;20803;-53
2022/06/13 04:27:06;;;;;;;19.33;9.07;;;;;;;10.13;100.00;99789.72;7389984;19;20419;-55
2022/06/13 04:29:39;;;;;;;17.57;6.57;;;;;;;10.04;100.00;99862.50;7393432;19;20423;-49
2022/06/13 04:32:13;;;;;;;13.00;6.43;;;;;;;9.95;100.00;99844.19;7387764;19;20432;-55
2022/06/13 04:34:46;;;;;;;20.20;6.57;;;;;;;9.89;100.00;99877.50;7395729;19;20394;-50
2022/06/13 04:37:17;;;;;;;19.43;7.73;;;;;;;9.96;100.00;99915.50;7387986;19;20411;-51
2022/06/13 04:39:52;;;;;;;21.50;7.40;;;;;;;9.98;100.00;99970.53;7394233;19;20499;-54
2022/06/13 04:42:22;;;;;;;24.77;8.10;;;;;;;10.00;100.00;99953.41;7388895;19;20418;-53
2022/06/13 04:44:53;;;;;;;25.00;8.20;;;;;;;10.05;100.00;100266.31;7394393;19;20372;-53
2022/06/13 04:47:23;;;;;;;30.40;8.93;;;;;;;10.09;100.00;100598.13;7387814;19;20940;-53
2022/06/13 04:49:56;;;;;;;23.33;7.77;;;;;;;10.10;100.00;100896.38;7393796;19;20493;-51
2022/06/13 04:52:29;;;;;;;30.13;8.77;;;;;;;10.10;100.00;100996.91;7388428;19;20435;-51
2022/06/13 04:55:04;;;;;;;17.30;8.77;;;;;;;10.16;100.00;101067.63;7394693;19;20387;-53
2022/06/13 04:57:34;;;;;;;30.03;8.30;;;;;;;10.16;100.00;101072.78;7391781;19;20443;-54
2022/06/13 05:00:06;;;;;;;28.43;10.80;;;;;;;10.22;100.00;101129.81;7394705;19;20420;-50
2022/06/13 05:02:40;;;;;;;23.90;8.63;;;;;;;10.17;100.00;101200.91;7384068;19;20419;-56
2022/06/13 05:05:27;;;;;;;27.90;8.50;;;;;;;10.14;100.00;101204.22;7394363;19;20379;-48
2022/06/13 05:07:58;;;;;;;24.87;8.73;;;;;;;10.15;100.00;101238.63;7387102;19;20415;-54
2022/06/13 05:10:32;;;;;;;21.60;7.87;;;;;;;10.14;100.00;101294.44;7392836;19;20495;-55
2022/06/13 05:13:02;;;;;;;25.00;8.70;;;;;;;10.12;100.00;101343.34;7393173;19;20829;-55
2022/06/13 05:15:34;;;;;;;23.83;8.20;;;;;;;10.12;100.00;101392.34;7394195;19;20391;-51
2022/06/13 05:18:30;;;;;;;21.20;8.87;;;;;;;10.23;100.00;101456.53;7393087;19;20411;-50
2022/06/13 05:21:17;;;;;;;20.20;8.40;;;;;;;10.32;100.00;101495.72;7384239;19;20409;-51
2022/06/13 05:23:59;;;;;;;25.20;8.50;;;;;;;10.41;100.00;101472.09;7393177;19;20390;-49
2022/06/13 05:26:32;;;;;;;22.83;8.80;;;;;;;10.48;100.00;101499.16;7387031;19;20766;-51
2022/06/13 05:29:02;;;;;;;21.87;8.97;;;;;;;10.61;100.00;101522.22;7393295;19;20380;-54
2022/06/13 05:31:32;;;;;;;31.07;10.93;;;;;;;10.65;100.00;101538.75;7387641;19;20423;-55
2022/06/13 05:34:02;;;;;;;23.23;8.97;;;;;;;10.77;100.00;101559.22;7393723;19;20384;-55
2022/06/13 05:36:32;;;;;;;27.40;9.17;;;;;;;10.75;100.00;101576.28;7386517;19;20479;-53
2022/06/13 05:39:04;;;;;;;28.03;11.57;;;;;;;10.74;100.00;101587.41;7392830;19;20388;-52
2022/06/13 05:41:36;;;;;;;28.47;9.23;;;;;;;10.71;100.00;101593.28;7393110;19;20415;-55
2022/06/13 05:44:08;;;;;;;26.53;10.20;;;;;;;11.00;100.00;101606.00;7398630;19;20407;-53
2022/06/13 05:46:40;;;;;;;19.97;9.10;;;;;;;10.97;100.00;101606.72;7394099;19;20434;-55
2022/06/13 05:49:10;;;;;;;16.83;7.20;;;;;;;11.16;100.00;101600.84;7399453;19;20414;-54
2022/06/13 05:51:41;;;;;;;27.23;8.67;;;;;;;11.24;100.00;101584.88;7394361;19;20754;-49
2022/06/13 05:54:11;;;;;;;23.67;7.47;;;;;;;11.27;100.00;101595.38;7401000;19;20933;-55
2022/06/13 05:56:44;;;;;;;17.47;7.80;;;;;;;11.17;100.00;101592.28;7393200;19;20427;-51
2022/06/13 05:59:14;;;;;;;23.63;7.00;;;;;;;11.24;100.00;101577.13;7399617;19;20465;-51
2022/06/13 06:01:43;;;;;;;26.53;7.83;;;;;;;11.24;100.00;101582.28;7392998;19;20412;-53
2022/06/13 06:04:13;;;;;;;15.17;7.17;;;;;;;11.50;100.00;101590.50;7398797;19;20449;-55
2022/06/13 06:06:43;;;;;;;20.33;7.97;;;;;;;11.57;100.00;101582.25;7393104;19;20416;-49
2022/06/13 06:09:13;;;;;;;24.40;7.73;;;;;;;11.63;100.00;101585.13;7398910;19;20913;-55
2022/06/13 06:11:45;;;;;;;12.53;6.50;;;;;;;11.73;100.00;101571.88;7394059;19;20416;-53
2022/06/13 06:14:16;;;;;;;11.00;6.10;;;;;;;11.79;100.00;101557.50;7399772;19;20960;-56
2022/06/13 06:16:46;;;;;;;15.47;5.83;;;;;;;11.65;100.00;101529.25;7393798;19;20432;-55
2022/06/13 06:19:15;;;;;;;13.37;7.03;;;;;;;11.81;100.00;101515.38;7398703;19;20393;-54
2022/06/13 06:21:46;;;;;;;18.80;7.07;;;;;;;11.91;100.00;101498.63;7391930;19;20426;-55
2022/06/13 06:24:15;;;;;;;20.87;7.10;;;;;;;11.97;100.00;101490.25;7398359;19;20452;-53
2022/06/13 06:26:48;;;;;;;18.97;6.00;;;;;;;12.01;100.00;101474.94;7392830;19;20421;-55
2022/06/13 06:29:18;;;;;;;16.90;5.87;;;;;;;11.97;100.00;101443.72;7398579;19;20443;-55
2022/06/13 06:31:47;;;;;;;14.30;5.40;;;;;;;11.91;100.00;101407.22;7393034;19;20432;-54
2022/06/13 06:34:17;;;;;;;17.03;5.67;;;;;;;11.95;100.00;101378.97;7399157;19;20720;-55
2022/06/13 06:36:47;;;;;;;10.00;5.00;;;;;;;12.03;100.00;101353.47;7391601;19;20958;-53
2022/06/13 06:39:17;;;;;;;16.83;5.77;;;;;;;12.19;100.00;101331.81;7398199;19;21094;-56
2022/06/13 06:41:49;;;;;;;15.10;5.53;;;;;;;12.38;100.00;101291.22;7391080;19;20433;-50
2022/06/13 06:44:19;;;;;;;11.97;6.03;;;;;;;12.47;100.00;101246.72;7397786;19;20393;-54
2022/06/13 06:46:49;;;;;;;18.47;4.77;;;;;;;12.63;100.00;101199.06;7392672;19;20808;-57
2022/06/13 06:49:19;;;;;;;18.60;4.70;;;;;;;12.78;100.00;101184.13;7398022;19;20427;-55
2022/06/13 06:51:49;;;;;;;17.90;5.10;;;;;;;12.78;100.00;101131.47;7390545;19;20444;-49
2022/06/13 06:59:58;;;;;;;11.10;4.37;;;;;;;12.45;100.00;100954.22;7397085;19;20435;-48
2022/06/13 07:02:29;;;;;;;11.53;3.60;;;;;;;12.46;100.00;100911.13;7389075;19;20993;-54
2022/06/13 07:05:02;;;;;;;21.23;5.00;;;;;;;12.36;100.00;100920.28;7396995;19;20414;-51
2022/06/13 07:07:32;;;;;;;11.63;3.30;;;;;;;12.07;100.00;100901.94;7391127;19;20483;-50
2022/06/13 07:10:02;;;;;;;15.60;5.33;;;;;;;12.08;100.00;100883.00;7396681;19;20422;-53
2022/06/13 07:12:34;;;;;;;12.00;4.90;;;;;;;11.96;100.00;100905.00;7391371;19;20413;-50
2022/06/13 07:15:04;;;;;;;14.00;4.97;;;;;;;11.99;100.00;100925.78;7398477;19;20857;-55
2022/06/13 07:17:34;;;;;;;18.43;5.63;;;;;;;11.95;100.00;100964.38;7390566;19;20814;-54
2022/06/13 07:20:05;;;;;;;12.87;4.10;;;;;;;11.67;100.00;100989.13;7395791;19;20421;-53
2022/06/13 07:22:35;;;;;;;21.70;4.80;;;;;;;11.59;100.00;101001.75;7389752;19;20425;-54
2022/06/13 07:25:05;;;;;;;20.60;3.67;;;;;;;11.38;100.00;101041.34;7397088;19;20365;-54
2022/06/13 07:27:38;;;;;;;12.87;4.07;;;;;;;11.23;100.00;101043.28;7392530;19;20445;-54
2022/06/13 07:30:09;;;;;;;9.50;3.40;;;;;;;11.03;100.00;101076.84;7395713;19;20741;-55
2022/06/13 07:32:39;;;;;;;13.20;4.40;;;;;;;10.86;100.00;101099.31;7391261;19;20494;-56
2022/06/13 07:35:10;;;;;;;6.00;3.57;;;;;;;10.78;100.00;101132.50;7397570;19;20384;-55
2022/06/13 07:40:23;;;;;;;5.17;2.40;;;;;;;10.35;100.00;101157.97;7395333;19;20421;-53
2022/06/13 07:42:57;;;;;;;6.83;2.77;;;;;;;10.31;100.00;101176.69;7390714;19;20415;-50
2022/06/13 07:45:29;;;;;;;6.40;2.80;;;;;;;10.22;100.00;101191.72;7398504;19;20508;-53
2022/06/13 07:48:18;;;;;;;5.50;2.17;;;;;;;10.26;100.00;101193.66;7395361;19;20430;-51
2022/06/13 07:50:49;;;;;;;4.47;1.97;;;;;;;10.26;100.00;101201.38;7388788;19;20412;-54
2022/06/13 07:53:19;;;;;;;7.33;2.40;;;;;;;10.14;100.00;101209.38;7396902;19;20388;-54
2022/06/13 07:56:10;;;;;;;5.17;2.13;;;;;;;10.19;100.00;101212.16;7389806;19;20494;-57
2022/06/13 07:58:44;;;;;;;4.80;2.00;;;;;;;10.30;100.00;101230.78;7397025;19;20384;-52
2022/06/13 08:01:16;;;;;;;8.23;2.77;;;;;;;10.44;100.00;101228.91;7388377;19;20403;-50
2022/06/13 08:03:51;;;;;;;4.63;1.90;;;;;;;10.55;100.00;101240.66;7395059;19;20451;-49
2022/06/13 08:06:23;;;;;;;5.40;2.27;;;;;;;10.71;100.00;101231.09;7387197;19;20532;-54
2022/06/13 08:08:53;;;;;;;5.73;2.33;;;;;;;10.58;100.00;101235.66;7395838;19;20377;-50
2022/06/13 08:11:32;;;;;;;6.50;2.00;;;;;;;10.67;100.00;101238.69;7390296;19;21124;-56
2022/06/13 08:14:06;;;;;;;4.20;1.70;;;;;;;10.46;100.00;101242.78;7395999;19;20409;-52
2022/06/13 08:16:36;;;;;;;4.20;2.10;;;;;;;10.40;100.00;101256.22;7390209;19;20411;-55
2022/06/13 08:19:07;;;;;;;3.93;2.17;;;;;;;10.23;100.00;101248.53;7395176;19;20391;-55
2022/06/13 08:21:38;;;;;;;7.17;1.83;;;;;;;10.25;100.00;101253.75;7386662;19;20423;-56
2022/06/13 08:24:09;;;;;;;3.77;1.87;;;;;;;10.00;100.00;101263.69;7395294;19;20380;-56
2022/06/13 08:26:43;;;;;;;3.07;1.80;;;;;;;10.02;100.00;101276.66;7391850;19;20406;-54
2022/06/13 08:29:16;;;;;;;5.37;2.10;;;;;;;9.84;100.00;101302.34;7394752;19;20399;-54
2022/06/13 08:31:46;;;;;;;3.03;1.50;;;;;;;9.75;100.00;101302.75;7389173;19;20424;-53
2022/06/13 08:34:15;;;;;;;3.20;1.70;;;;;;;9.72;100.00;101308.63;7395387;19;20392;-57
2022/06/13 08:36:46;;;;;;;2.53;1.80;;;;;;;9.70;100.00;101317.06;7387461;19;20415;-55
2022/06/13 08:39:16;;;;;;;3.67;1.70;;;;;;;9.75;100.00;101328.53;7393813;19;20522;-55
2022/06/13 08:41:56;;;;;;;10.20;2.47;;;;;;;9.72;100.00;101339.53;7388478;19;20478;-54
2022/06/13 08:44:40;;;;;;;6.63;2.43;;;;;;;9.77;100.00;101368.13;7395017;19;20415;-50
2022/06/13 08:47:18;;;;;;;6.87;2.20;;;;;;;9.82;100.00;101386.41;7387969;19;20415;-54
2022/06/13 08:49:54;;;;;;;5.57;2.20;;;;;;;9.93;100.00;101399.88;7394173;19;20416;-55
2022/06/13 08:52:29;;;;;;;4.60;2.20;;;;;;;9.97;100.00;101420.78;7386853;19;21316;-55
2022/06/13 08:55:06;;;;;;;6.13;2.40;;;;;;;10.06;100.00;101446.16;7398941;19;20386;-52
2022/06/13 08:57:37;;;;;;;6.73;2.17;;;;;;;10.08;100.00;101460.03;7386916;19;20422;-55
2022/06/13 09:00:13;;;;;;;7.20;2.17;;;;;;;10.16;100.00;101485.34;7389201;19;20941;-56
2022/06/13 09:02:48;;;;;;;49.33;12.47;;;;;;;10.23;100.00;101497.78;7392125;19;20451;-53
2022/06/13 09:05:23;;;;;;;4.60;1.97;;;;;;;10.11;100.00;101488.56;7395925;19;20470;-55
2022/06/13 09:07:57;;;;;;;5.03;2.20;;;;;;;10.34;100.00;101501.84;7386865;19;20490;-54
2022/06/13 09:10:31;;;;;;;28.70;7.80;;;;;;;10.64;100.00;101506.94;7395925;19;20446;-58
2022/06/13 09:13:07;;;;;;;22.73;5.80;;;;;;;10.75;100.00;101489.41;7393391;19;20937;-54
2022/06/13 09:15:44;;;;;;;4.77;2.97;;;;;;;10.97;100.00;101487.94;7387280;19;20432;-54
2022/06/13 09:18:19;;;;;;;10.47;3.67;;;;;;;10.94;100.00;101490.38;7396019;19;20389;-57
2022/06/13 09:20:53;;;;;;;4.20;1.50;;;;;;;10.97;100.00;101475.03;7385076;19;20414;-58
2022/06/13 09:23:30;;;;;;;2.70;1.57;;;;;;;11.00;100.00;101469.16;7392709;19;20384;-60
2022/06/13 09:26:06;;;;;;;9.33;3.10;;;;;;;11.06;100.00;101469.47;7385669;19;20999;-58
2022/06/13 09:28:41;;;;;;;2.87;1.50;;;;;;;11.19;100.00;101460.66;7393036;19;20412;-59
2022/06/13 09:31:17;;;;;;;3.30;2.03;;;;;;;11.36;100.00;101471.84;7362485;19;20749;-57
2022/06/13 09:33:51;;;;;;;2.80;1.33;;;;;;;11.60;100.00;101463.53;7393108;19;20381;-57
2022/06/13 09:36:25;;;;;;;4.47;1.70;;;;;;;11.95;100.00;101477.25;7389240;19;20485;-59
2022/06/13 09:38:59;;;;;;;1.87;1.47;;;;;;;12.02;100.00;101468.97;7392681;19;20733;-58
2022/06/13 09:41:51;;;;;;;17.33;4.60;;;;;;;11.80;100.00;101448.09;7386364;19;20434;-58
2022/06/13 09:44:31;;;;;;;41.13;11.33;;;;;;;11.80;100.00;101430.84;7392756;19;20415;-58
2022/06/13 09:47:13;;;;;;;6.67;2.30;;;;;;;12.05;100.00;101413.94;7368155;19;20542;-57
2022/06/13 09:49:55;;;;;;;4.93;2.30;;;;;;;12.31;100.00;101431.50;7388073;19;20861;-58
2022/06/13 09:52:31;;;;;;;2.73;1.30;;;;;;;12.08;100.00;101405.44;7380793;19;20410;-58
2022/06/13 09:55:06;;;;;;;11.90;1.23;;;;;;;11.89;100.00;101366.66;7390277;19;20881;-57
2022/06/13 09:57:45;;;;;;;2.40;1.03;;;;;;;12.11;100.00;101328.00;7383894;19;20493;-56
2022/06/13 10:00:18;;;;;;;2.33;0.93;;;;;;;12.36;100.00;101310.97;7388644;19;20405;-56
2022/06/13 10:02:58;;;;;;;1.80;0.80;;;;;;;12.43;100.00;101315.59;7379847;19;20419;-57
2022/06/13 10:05:39;;;;;;;3.30;1.23;;;;;;;12.58;100.00;101299.81;7390312;19;20473;-53
2022/06/13 10:08:25;;;;;;;3.00;1.20;;;;;;;12.80;100.00;101291.25;7389115;19;20411;-59
2022/06/13 10:11:20;;;;;;;3.03;1.40;;;;;;;12.92;100.00;101300.34;7380297;19;20762;-59
2022/06/13 10:14:05;;;;;;;3.07;1.33;;;;;;;13.08;100.00;101312.22;7390978;19;20388;-57
2022/06/13 10:16:40;;;;;;;2.13;1.00;;;;;;;13.26;100.00;101293.00;7380718;19;20477;-58
2022/06/13 10:19:23;;;;;;;3.70;1.73;;;;;;;13.09;100.00;101268.22;7387866;19;20399;-55
2022/06/13 10:21:58;;;;;;;7.90;2.60;;;;;;;13.23;100.00;101223.84;7386544;19;20448;-54
2022/06/13 10:24:39;;;;;;;23.93;6.60;;;;;;;12.98;100.00;101199.59;7385089;19;20426;-51
2022/06/13 10:27:17;;;;;;;20.50;6.30;;;;;;;12.98;100.00;101137.44;7388219;19;20846;-58
2022/06/13 10:30:02;;;;;;;5.53;2.30;;;;;;;13.05;100.00;101076.38;7400915;19;20441;-54
2022/06/13 10:32:41;;;;;;;8.43;2.47;;;;;;;13.00;100.00;101024.41;7391668;19;20434;-58
2022/06/13 10:35:23;;;;;;;11.47;3.63;;;;;;;13.03;100.00;100990.81;7401346;19;20388;-56
2022/06/13 10:38:08;;;;;;;3.00;0.90;;;;;;;13.40;100.00;100961.84;7397479;19;20422;-52
2022/06/13 10:40:38;;;;;;;5.87;2.03;;;;;;;13.38;100.00;100961.78;7389273;19;20822;-59
2022/06/13 10:43:08;;;;;;;5.80;2.10;;;;;;;13.58;100.00;100993.59;7401996;19;20415;-58
2022/06/13 10:45:39;;;;;;;20.80;5.33;;;;;;;13.73;100.00;100950.84;7395681;19;20401;-57
2022/06/13 10:48:14;;;;;;;8.23;1.37;;;;;;;13.86;100.00;100838.91;7401859;19;20796;-57
2022/06/13 10:50:49;;;;;;;13.57;3.70;;;;;;;13.84;100.00;100775.72;7388631;19;20433;-58
2022/06/13 10:53:22;;;;;;;12.00;3.43;;;;;;;14.00;100.00;100724.28;7402756;19;20390;-56
2022/06/13 10:55:55;;;;;;;27.13;7.33;;;;;;;13.79;100.00;100603.56;7391721;19;20391;-58
2022/06/13 10:58:28;;;;;;;10.77;3.33;;;;;;;13.70;100.00;100588.66;7400162;19;20409;-58
2022/06/13 11:01:07;;;;;;;4.70;1.07;;;;;;;13.81;100.00;100518.94;7386074;19;20408;-57
2022/06/13 11:03:37;;;;;;;75.70;18.87;;;;;;;13.86;100.00;100452.50;7398705;19;20397;-57
2022/06/13 11:06:18;;;;;;;40.47;12.60;;;;;;;14.00;100.00;100390.56;7389645;19;20439;-58
2022/06/13 11:08:49;;;;;;;182.77;47.30;;;;;;;14.17;100.00;100422.03;7396160;19;20418;-58
2022/06/13 11:11:32;;;;;;;27.83;6.80;;;;;;;14.17;100.00;100393.50;7386261;19;20526;-57
2022/06/13 11:14:02;;;;;;;8.97;3.20;;;;;;;14.07;100.00;100305.97;7397606;19;20427;-58
2022/06/13 11:25:01;;;;;;;15.23;2.57;;;;;;;14.06;100.00;100254.06;7397189;19;20385;-54
2022/06/13 11:27:44;;;;;;;47.73;13.03;;;;;;;13.83;100.00;100211.28;7391109;19;20436;-57
2022/06/13 11:30:46;;;;;;;12.57;3.40;;;;;;;13.99;100.00;100263.44;7395367;19;20419;-58
2022/06/13 11:33:28;;;;;;;7.30;1.73;;;;;;;13.97;100.00;100228.81;7394822;19;20423;-55
2022/06/13 11:36:01;;;;;;;13.40;4.27;;;;;;;14.14;100.00;100182.44;7390241;19;20413;-53
2022/06/13 11:38:35;;;;;;;4.30;1.30;;;;;;;14.21;100.00;100140.22;7396639;19;20382;-57
2022/06/13 11:41:09;;;;;;;5.83;1.20;;;;;;;14.56;100.00;100175.41;7387419;19;20449;-53
2022/06/13 11:43:44;;;;;;;5.93;1.23;;;;;;;14.70;100.00;100144.44;7400462;19;20402;-55
2022/06/13 11:46:32;;;;;;;4.83;1.20;;;;;;;14.86;100.00;100150.75;7388385;19;20442;-58
2022/06/13 11:49:05;;;;;;;4.27;0.80;;;;;;;14.61;100.00;100114.00;7395357;19;20388;-56
2022/06/13 11:51:44;;;;;;;2.30;0.63;;;;;;;14.44;100.00;100018.63;7388727;19;20417;-59
2022/06/13 11:54:25;;;;;;;6.13;0.70;;;;;;;14.65;100.00;100245.63;7396833;19;20392;-55
2022/06/13 11:57:19;;;;;;;5.67;0.80;;;;;;;14.56;100.00;100250.66;7387982;19;20421;-58
2022/06/13 11:59:53;;;;;;;3.77;0.83;;;;;;;14.82;100.00;100260.66;7394048;19;20452;-58
2022/06/13 12:02:26;;;;;;;4.50;0.90;;;;;;;15.06;100.00;100272.25;7388093;19;20422;-58
2022/06/13 12:04:58;;;;;;;5.20;1.03;;;;;;;15.08;100.00;100280.97;7394435;19;20395;-54
2022/06/13 12:07:30;;;;;;;5.40;0.87;;;;;;;15.12;100.00;100288.84;7387416;19;20426;-58